Merrittstown, PA (15463)

10:57 PM EDT on August 22, 2014 (GMT -0400)
HillTop Rices Landing | Change Station
CLOSE
Current Station
Personal Weather Station
Location: Rices Landing, PA
Elevation: 1118 ft
Nearby Weather Stations

Elev 1118 ft 39.93 °N, 79.95 °W | Updated 29 minutes ago

Scattered Clouds
Scattered Clouds
70.4 °F
Feels Like 70.4 °F
N
0.0
Wind Variable Wind from SSE
Gusts 0.0 mph

Today
High -- | Low -- °F
--% Chance of Precip.
Yesterday
High -- | Low -- °F
Precip. -- in
6:37 AM 8:06 PM
Waning Crescent, 5% visible
Pressure 29.99 in
Visibility 10.0 miles
Clouds Scattered Clouds 5000 ft
Dew Point 69 °F
Humidity 95%
Rainfall 0.55 in
Snow Depth Not available.
UV 0 out of 12
Pollen 8.40 out of 12
Air Quality Not available.
Flu Activity Not available.
METAR KMGW 230153Z 00000KT 10SM SCT050 22/20 A3002 RMK AO2 SLP155 T02220200

More Conditions Fewer Conditions

Pressure 29.99 in
Visibility 10.0 miles
Clouds Scattered Clouds 5000 ft
Dew Point 69 °F
Humidity 95%
Rainfall 0.55 in
Snow Depth Not available.
UV 0 out of 12
Pollen 8.40 out of 12
Air Quality Not available.
Flu Activity Not available.
METAR KMGW 230153Z 00000KT 10SM SCT050 22/20 A3002 RMK AO2 SLP155 T02220200

More Conditions Fewer Conditions

10-Day Weather Forecast

Almanac

Astronomy

Aug. 22, 2014 Rise Set
Actual Time 6:37 AM EDT 8:06 PM EDT
Civil Twilight 6:09 AM EDT 8:34 PM EDT
Nautical Twilight 5:35 AM EDT 9:08 PM EDT
Astronomical Twilight 4:58 AM EDT 9:44 PM EDT
Moon 3:59 AM EDT (8/22) 6:13 PM EDT (8/22)
Length of Visible Light 14h 25m
Length of Day
13h 28m
Tomorrow will be 2m 25s shorter.
Waning Crescent, 5% of the Moon is Illuminated
Today
Waning Crescent
Aug 25
New
Sep 2
First Quarter
Sep 8
Full
Sep 15
Last Quarter

Today's Extremes

State Highs State Lows

Community

WunderPhotos

Upload Photos

1,746,348 photos uploaded!

WunderBlogs® & News

Nearby

Snow Depth

Station Depth Elevation
No new snow has been reported.

Earthquake Activity

City Distance Mag. Time & Date
No recent earthquake activity has been reported nearby.
Minimum magnitude displayed is 2.5.

Coastal Water Temperatures

Place Temperature
No Stations Reporting

Nearby Weather Stations